Aérodrome :
LOGIN :

S'inscrire | Disclaimer

   EN    FR    IT 

 










Légende :    VFR   VFR Marginal   IFR   IFR Intensif   IFR Très Intensif
Visi : 
Plafond : 
>= 8 km
>= 3000ft
5 à 8 km
1000 à 3000 ft
1500m à 5 km
500 à 1000 ft
800 à 1500m
200 à 500 ft
< 800m
< 200 ft
Symboles :   Orages  Brouillard  Fortes neiges  Fortes précipitations  Vent > 20 kt
SIGMETs :   Divers  Orages  Givrage  Turbulence  Onde Orograph.  Cendres Volcan.






- Altitude de l'aérodrome : 659 ft
- Code IATA : LYN


LFLY - Lyon Bron

DERNIER METAR :
  • 121400Z AUTO 16010KT CAVOK 07/M01 Q1005 NOSIG

METARs EXPIRÉS :
  • 121330Z AUTO 18011KT 9999 FEW035 08/M01 Q1006 NOSIG
  • 121300Z AUTO 17009KT 9999 FEW035 BKN130 08/01 Q1007 NOSIG
  • 121230Z AUTO 17008KT 130V190 CAVOK 08/M00 Q1007 NOSIG
  • 121200Z AUTO 17007KT CAVOK 08/00 Q1008 NOSIG
  • 121130Z AUTO 16007KT CAVOK 08/00 Q1009 NOSIG
  • 121100Z AUTO 19006KT 9999 BKN046 07/01 Q1010 NOSIG

TAF TAF LFLY
Valide du 12 à 12h jusqu'au 13 à 12h UTC


121100Z 1212/1312 16010KT CAVOK
BECMG 1218/1220 18015G25KT -RA OVC040
TEMPO 1221/1307 18025G38KT
TEMPO 1307/1308 27015G25KT 3000 RA SCT010 SCT030TCU OVC040
FM130900 28010KT 9999 NSW FEW025TCU SCT030
TEMPO 1309/1312 28015G30KT 4000 SHRA BKN025TCU
PROB30
TEMPO 1311/1312 30020G40KT 3000 TSRAGS SCT010 SCT020CB BKN025TCU
ATIS : +33 4 72 15 87 96



MET'MAP, la Météo Aéronautique d'un coup d'oeil ! - Copyright ORBIFLY Décembre 2007 - Disclaimer

ORBIFLY MET'MAP TEAM :

Programmation & Développement : Alexandra Zaïnal
Sur une idée originale de : Baudouin d'Aumeries
Assistance à la programmation : Marc-Olivier Méhu
Soutien technique & logistique : Manuel Goepfert

Contact : metmap@orbifly.com




SOURCES & CREDITS :

   NOAA